sensor_id;sensor_type;location;lat;lon;timestamp;P1;durP1;ratioP1;P2;durP2;ratioP2
48765;SDS011;65794;51.836;5.002;2023-02-28T00:01:11;6.80;;;2.92;;
48765;SDS011;65794;51.836;5.002;2023-02-28T00:03:39;8.63;;;2.72;;
48765;SDS011;65794;51.836;5.002;2023-02-28T00:06:07;9.88;;;2.33;;
48765;SDS011;65794;51.836;5.002;2023-02-28T00:08:34;7.68;;;2.45;;
48765;SDS011;65794;51.836;5.002;2023-02-28T00:11:02;9.30;;;2.60;;
48765;SDS011;65794;51.836;5.002;2023-02-28T00:13:29;7.57;;;2.70;;
48765;SDS011;65794;51.836;5.002;2023-02-28T00:16:00;6.25;;;2.63;;
48765;SDS011;65794;51.836;5.002;2023-02-28T00:18:27;8.88;;;2.70;;
48765;SDS011;65794;51.836;5.002;2023-02-28T00:20:57;10.48;;;2.70;;
48765;SDS011;65794;51.836;5.002;2023-02-28T00:23:24;8.45;;;2.55;;
48765;SDS011;65794;51.836;5.002;2023-02-28T00:25:51;10.15;;;3.03;;
48765;SDS011;65794;51.836;5.002;2023-02-28T00:28:18;6.25;;;2.67;;
48765;SDS011;65794;51.836;5.002;2023-02-28T00:30:45;5.88;;;2.22;;
48765;SDS011;65794;51.836;5.002;2023-02-28T00:33:12;7.63;;;2.75;;
48765;SDS011;65794;51.836;5.002;2023-02-28T00:35:39;10.95;;;3.63;;
48765;SDS011;65794;51.836;5.002;2023-02-28T00:38:08;11.77;;;2.72;;
48765;SDS011;65794;51.836;5.002;2023-02-28T00:40:35;8.50;;;2.72;;
48765;SDS011;65794;51.836;5.002;2023-02-28T00:43:02;9.10;;;2.78;;
48765;SDS011;65794;51.836;5.002;2023-02-28T00:45:31;5.97;;;2.53;;
48765;SDS011;65794;51.836;5.002;2023-02-28T00:47:58;7.97;;;2.90;;
48765;SDS011;65794;51.836;5.002;2023-02-28T00:50:25;10.65;;;2.67;;
48765;SDS011;65794;51.836;5.002;2023-02-28T00:52:52;8.20;;;2.60;;
48765;SDS011;65794;51.836;5.002;2023-02-28T00:55:19;10.85;;;3.30;;
48765;SDS011;65794;51.836;5.002;2023-02-28T00:57:47;7.63;;;2.72;;
48765;SDS011;65794;51.836;5.002;2023-02-28T01:00:14;7.63;;;2.50;;
48765;SDS011;65794;51.836;5.002;2023-02-28T01:02:42;12.27;;;2.70;;
48765;SDS011;65794;51.836;5.002;2023-02-28T01:05:08;6.20;;;2.35;;
48765;SDS011;65794;51.836;5.002;2023-02-28T01:07:35;7.57;;;3.05;;
48765;SDS011;65794;51.836;5.002;2023-02-28T01:10:02;8.65;;;2.53;;
48765;SDS011;65794;51.836;5.002;2023-02-28T01:12:29;6.90;;;2.63;;
48765;SDS011;65794;51.836;5.002;2023-02-28T01:14:56;10.52;;;2.47;;
48765;SDS011;65794;51.836;5.002;2023-02-28T01:17:24;10.82;;;2.58;;
48765;SDS011;65794;51.836;5.002;2023-02-28T01:19:52;7.60;;;2.78;;
48765;SDS011;65794;51.836;5.002;2023-02-28T01:22:19;7.55;;;2.75;;
48765;SDS011;65794;51.836;5.002;2023-02-28T01:24:46;10.15;;;2.60;;
48765;SDS011;65794;51.836;5.002;2023-02-28T01:27:14;7.35;;;2.45;;
48765;SDS011;65794;51.836;5.002;2023-02-28T01:29:40;10.25;;;2.53;;
48765;SDS011;65794;51.836;5.002;2023-02-28T01:32:08;7.72;;;2.50;;
48765;SDS011;65794;51.836;5.002;2023-02-28T01:34:35;6.50;;;2.67;;
48765;SDS011;65794;51.836;5.002;2023-02-28T01:37:03;7.70;;;3.08;;
48765;SDS011;65794;51.836;5.002;2023-02-28T01:39:30;7.45;;;2.50;;
48765;SDS011;65794;51.836;5.002;2023-02-28T01:41:58;8.65;;;3.05;;
48765;SDS011;65794;51.836;5.002;2023-02-28T01:47:12;9.50;;;3.13;;
48765;SDS011;65794;51.836;5.002;2023-02-28T01:49:39;12.02;;;3.20;;
48765;SDS011;65794;51.836;5.002;2023-02-28T01:52:06;8.88;;;2.60;;
48765;SDS011;65794;51.836;5.002;2023-02-28T01:54:33;4.55;;;2.17;;
48765;SDS011;65794;51.836;5.002;2023-02-28T01:57:13;7.93;;;2.55;;
48765;SDS011;65794;51.836;5.002;2023-02-28T01:59:42;6.28;;;2.67;;
48765;SDS011;65794;51.836;5.002;2023-02-28T02:02:13;5.68;;;2.83;;
48765;SDS011;65794;51.836;5.002;2023-02-28T02:04:42;7.03;;;2.60;;
48765;SDS011;65794;51.836;5.002;2023-02-28T02:07:12;9.30;;;3.10;;
48765;SDS011;65794;51.836;5.002;2023-02-28T02:09:44;5.80;;;2.72;;
48765;SDS011;65794;51.836;5.002;2023-02-28T02:15:00;6.57;;;2.78;;
48765;SDS011;65794;51.836;5.002;2023-02-28T02:17:48;6.97;;;2.67;;
48765;SDS011;65794;51.836;5.002;2023-02-28T02:23:11;8.95;;;2.72;;
48765;SDS011;65794;51.836;5.002;2023-02-28T02:30:55;8.57;;;3.28;;
48765;SDS011;65794;51.836;5.002;2023-02-28T02:36:14;7.82;;;3.60;;
48765;SDS011;65794;51.836;5.002;2023-02-28T02:38:49;9.27;;;3.33;;
48765;SDS011;65794;51.836;5.002;2023-02-28T02:41:19;13.00;;;3.65;;
48765;SDS011;65794;51.836;5.002;2023-02-28T02:43:51;5.75;;;2.72;;
48765;SDS011;65794;51.836;5.002;2023-02-28T02:48:45;11.82;;;4.20;;
48765;SDS011;65794;51.836;5.002;2023-02-28T02:51:16;12.98;;;3.92;;
48765;SDS011;65794;51.836;5.002;2023-02-28T02:53:48;10.90;;;3.75;;
48765;SDS011;65794;51.836;5.002;2023-02-28T02:56:20;10.07;;;3.92;;
48765;SDS011;65794;51.836;5.002;2023-02-28T02:58:49;9.30;;;3.15;;
48765;SDS011;65794;51.836;5.002;2023-02-28T03:01:20;6.65;;;2.90;;
48765;SDS011;65794;51.836;5.002;2023-02-28T03:03:58;17.55;;;3.90;;
48765;SDS011;65794;51.836;5.002;2023-02-28T03:06:26;8.57;;;3.10;;
48765;SDS011;65794;51.836;5.002;2023-02-28T03:08:53;8.02;;;3.33;;
48765;SDS011;65794;51.836;5.002;2023-02-28T03:11:21;7.38;;;3.15;;
48765;SDS011;65794;51.836;5.002;2023-02-28T03:13:59;9.75;;;3.42;;
48765;SDS011;65794;51.836;5.002;2023-02-28T03:16:32;8.43;;;3.42;;
48765;SDS011;65794;51.836;5.002;2023-02-28T03:21:36;7.50;;;3.53;;
48765;SDS011;65794;51.836;5.002;2023-02-28T03:24:08;10.93;;;3.80;;
48765;SDS011;65794;51.836;5.002;2023-02-28T03:26:42;11.32;;;3.83;;
48765;SDS011;65794;51.836;5.002;2023-02-28T03:32:02;10.13;;;3.93;;
48765;SDS011;65794;51.836;5.002;2023-02-28T03:34:34;8.23;;;3.65;;
48765;SDS011;65794;51.836;5.002;2023-02-28T03:37:04;12.95;;;4.25;;
48765;SDS011;65794;51.836;5.002;2023-02-28T03:40:06;10.05;;;4.10;;
48765;SDS011;65794;51.836;5.002;2023-02-28T03:42:27;7.13;;;3.70;;
48765;SDS011;65794;51.836;5.002;2023-02-28T03:44:56;10.00;;;4.00;;
48765;SDS011;65794;51.836;5.002;2023-02-28T03:47:33;12.10;;;4.30;;
48765;SDS011;65794;51.836;5.002;2023-02-28T03:53:00;7.32;;;3.45;;
48765;SDS011;65794;51.836;5.002;2023-02-28T03:55:32;8.40;;;3.90;;
48765;SDS011;65794;51.836;5.002;2023-02-28T03:58:05;10.07;;;3.70;;
48765;SDS011;65794;51.836;5.002;2023-02-28T04:00:34;8.85;;;3.75;;
48765;SDS011;65794;51.836;5.002;2023-02-28T04:03:02;13.27;;;3.90;;
48765;SDS011;65794;51.836;5.002;2023-02-28T04:05:29;12.02;;;4.00;;
48765;SDS011;65794;51.836;5.002;2023-02-28T04:08:06;10.75;;;4.25;;
48765;SDS011;65794;51.836;5.002;2023-02-28T04:10:34;9.30;;;4.30;;
48765;SDS011;65794;51.836;5.002;2023-02-28T04:13:01;11.90;;;3.78;;
48765;SDS011;65794;51.836;5.002;2023-02-28T04:15:28;12.10;;;4.63;;
48765;SDS011;65794;51.836;5.002;2023-02-28T04:17:57;9.75;;;4.25;;
48765;SDS011;65794;51.836;5.002;2023-02-28T04:20:28;10.23;;;4.07;;
48765;SDS011;65794;51.836;5.002;2023-02-28T04:22:54;8.70;;;3.65;;
48765;SDS011;65794;51.836;5.002;2023-02-28T04:25:21;10.27;;;4.72;;
48765;SDS011;65794;51.836;5.002;2023-02-28T04:27:48;10.30;;;4.45;;
48765;SDS011;65794;51.836;5.002;2023-02-28T04:30:15;8.60;;;4.13;;
48765;SDS011;65794;51.836;5.002;2023-02-28T04:32:42;11.90;;;4.55;;
48765;SDS011;65794;51.836;5.002;2023-02-28T04:35:09;11.52;;;5.10;;
48765;SDS011;65794;51.836;5.002;2023-02-28T04:37:38;11.13;;;4.40;;
48765;SDS011;65794;51.836;5.002;2023-02-28T04:40:05;9.70;;;4.15;;
48765;SDS011;65794;51.836;5.002;2023-02-28T04:42:32;8.93;;;4.13;;
48765;SDS011;65794;51.836;5.002;2023-02-28T04:45:02;10.50;;;4.80;;
48765;SDS011;65794;51.836;5.002;2023-02-28T04:47:29;10.05;;;4.20;;
48765;SDS011;65794;51.836;5.002;2023-02-28T04:49:56;9.60;;;4.68;;
48765;SDS011;65794;51.836;5.002;2023-02-28T04:52:23;12.00;;;4.40;;
48765;SDS011;65794;51.836;5.002;2023-02-28T04:54:50;11.55;;;4.75;;
48765;SDS011;65794;51.836;5.002;2023-02-28T04:57:17;9.30;;;4.53;;
48765;SDS011;65794;51.836;5.002;2023-02-28T04:59:43;9.98;;;4.07;;
48765;SDS011;65794;51.836;5.002;2023-02-28T05:02:10;19.85;;;5.50;;
48765;SDS011;65794;51.836;5.002;2023-02-28T05:04:37;10.63;;;4.78;;
48765;SDS011;65794;51.836;5.002;2023-02-28T05:07:04;10.82;;;4.18;;
48765;SDS011;65794;51.836;5.002;2023-02-28T05:09:31;10.68;;;4.65;;
48765;SDS011;65794;51.836;5.002;2023-02-28T05:12:00;9.75;;;4.20;;
48765;SDS011;65794;51.836;5.002;2023-02-28T05:14:27;8.85;;;4.40;;
48765;SDS011;65794;51.836;5.002;2023-02-28T05:16:54;8.98;;;3.83;;
48765;SDS011;65794;51.836;5.002;2023-02-28T05:19:21;9.57;;;4.05;;
48765;SDS011;65794;51.836;5.002;2023-02-28T05:21:52;11.40;;;4.80;;
48765;SDS011;65794;51.836;5.002;2023-02-28T05:24:20;12.95;;;4.20;;
48765;SDS011;65794;51.836;5.002;2023-02-28T05:26:50;16.25;;;4.47;;
48765;SDS011;65794;51.836;5.002;2023-02-28T05:29:18;12.65;;;3.80;;
48765;SDS011;65794;51.836;5.002;2023-02-28T05:31:45;9.80;;;3.95;;
48765;SDS011;65794;51.836;5.002;2023-02-28T05:34:12;8.32;;;3.53;;
48765;SDS011;65794;51.836;5.002;2023-02-28T05:36:42;11.13;;;3.97;;
48765;SDS011;65794;51.836;5.002;2023-02-28T05:39:09;11.98;;;3.80;;
48765;SDS011;65794;51.836;5.002;2023-02-28T05:41:40;9.07;;;3.30;;
48765;SDS011;65794;51.836;5.002;2023-02-28T05:44:08;7.75;;;3.50;;
48765;SDS011;65794;51.836;5.002;2023-02-28T05:46:35;9.30;;;3.30;;
48765;SDS011;65794;51.836;5.002;2023-02-28T05:49:01;8.02;;;2.72;;
48765;SDS011;65794;51.836;5.002;2023-02-28T05:51:29;7.32;;;2.85;;
48765;SDS011;65794;51.836;5.002;2023-02-28T05:54:00;8.27;;;3.22;;
48765;SDS011;65794;51.836;5.002;2023-02-28T05:56:28;7.13;;;2.75;;
48765;SDS011;65794;51.836;5.002;2023-02-28T05:58:55;7.20;;;3.10;;
48765;SDS011;65794;51.836;5.002;2023-02-28T06:04:00;8.45;;;2.78;;
48765;SDS011;65794;51.836;5.002;2023-02-28T06:06:28;9.75;;;3.22;;
48765;SDS011;65794;51.836;5.002;2023-02-28T06:08:56;7.97;;;2.92;;
48765;SDS011;65794;51.836;5.002;2023-02-28T06:11:23;6.72;;;2.45;;
48765;SDS011;65794;51.836;5.002;2023-02-28T06:13:55;8.60;;;3.47;;
48765;SDS011;65794;51.836;5.002;2023-02-28T06:16:23;7.00;;;2.70;;
48765;SDS011;65794;51.836;5.002;2023-02-28T06:18:50;12.13;;;2.72;;
48765;SDS011;65794;51.836;5.002;2023-02-28T06:21:17;7.53;;;2.70;;
48765;SDS011;65794;51.836;5.002;2023-02-28T06:23:44;8.70;;;2.95;;
48765;SDS011;65794;51.836;5.002;2023-02-28T06:26:11;9.57;;;3.15;;
48765;SDS011;65794;51.836;5.002;2023-02-28T06:28:37;8.63;;;3.20;;
48765;SDS011;65794;51.836;5.002;2023-02-28T06:31:08;7.78;;;3.13;;
48765;SDS011;65794;51.836;5.002;2023-02-28T06:33:36;6.25;;;3.15;;
48765;SDS011;65794;51.836;5.002;2023-02-28T06:36:03;8.65;;;3.20;;
48765;SDS011;65794;51.836;5.002;2023-02-28T06:38:31;7.57;;;3.08;;
48765;SDS011;65794;51.836;5.002;2023-02-28T06:40:59;6.30;;;2.90;;
48765;SDS011;65794;51.836;5.002;2023-02-28T06:43:31;9.45;;;3.53;;
48765;SDS011;65794;51.836;5.002;2023-02-28T06:45:59;10.50;;;3.83;;
48765;SDS011;65794;51.836;5.002;2023-02-28T06:48:27;8.63;;;3.83;;
48765;SDS011;65794;51.836;5.002;2023-02-28T06:51:04;10.60;;;3.65;;
48765;SDS011;65794;51.836;5.002;2023-02-28T06:53:32;7.05;;;3.28;;
48765;SDS011;65794;51.836;5.002;2023-02-28T06:55:59;6.68;;;3.08;;
48765;SDS011;65794;51.836;5.002;2023-02-28T06:58:26;6.07;;;2.90;;
48765;SDS011;65794;51.836;5.002;2023-02-28T07:00:53;8.13;;;3.55;;
48765;SDS011;65794;51.836;5.002;2023-02-28T07:03:20;8.95;;;3.40;;
48765;SDS011;65794;51.836;5.002;2023-02-28T07:05:47;6.68;;;2.92;;
48765;SDS011;65794;51.836;5.002;2023-02-28T07:08:13;6.97;;;2.80;;
48765;SDS011;65794;51.836;5.002;2023-02-28T07:10:40;10.60;;;3.15;;
48765;SDS011;65794;51.836;5.002;2023-02-28T07:13:08;7.95;;;3.00;;
48765;SDS011;65794;51.836;5.002;2023-02-28T07:15:35;7.25;;;2.85;;
48765;SDS011;65794;51.836;5.002;2023-02-28T07:18:07;8.63;;;3.20;;
48765;SDS011;65794;51.836;5.002;2023-02-28T07:20:38;10.18;;;3.25;;
48765;SDS011;65794;51.836;5.002;2023-02-28T07:23:05;11.40;;;3.63;;
48765;SDS011;65794;51.836;5.002;2023-02-28T07:25:32;12.90;;;3.58;;
48765;SDS011;65794;51.836;5.002;2023-02-28T07:27:59;6.82;;;3.45;;
48765;SDS011;65794;51.836;5.002;2023-02-28T07:30:26;10.18;;;2.95;;
48765;SDS011;65794;51.836;5.002;2023-02-28T07:32:53;6.50;;;3.15;;
48765;SDS011;65794;51.836;5.002;2023-02-28T07:35:23;6.50;;;2.90;;
48765;SDS011;65794;51.836;5.002;2023-02-28T07:37:50;11.00;;;3.10;;
48765;SDS011;65794;51.836;5.002;2023-02-28T07:40:17;6.47;;;2.85;;
48765;SDS011;65794;51.836;5.002;2023-02-28T07:42:44;6.47;;;3.05;;
48765;SDS011;65794;51.836;5.002;2023-02-28T07:45:16;9.40;;;3.45;;
48765;SDS011;65794;51.836;5.002;2023-02-28T07:47:43;9.88;;;4.10;;
48765;SDS011;65794;51.836;5.002;2023-02-28T07:50:13;8.25;;;3.22;;
48765;SDS011;65794;51.836;5.002;2023-02-28T07:52:40;9.23;;;3.70;;
48765;SDS011;65794;51.836;5.002;2023-02-28T07:55:08;7.53;;;3.47;;
48765;SDS011;65794;51.836;5.002;2023-02-28T07:57:36;10.23;;;3.22;;
48765;SDS011;65794;51.836;5.002;2023-02-28T08:00:03;15.45;;;3.55;;
48765;SDS011;65794;51.836;5.002;2023-02-28T08:02:36;9.68;;;3.38;;
48765;SDS011;65794;51.836;5.002;2023-02-28T08:05:04;7.68;;;3.70;;
48765;SDS011;65794;51.836;5.002;2023-02-28T08:07:31;7.53;;;3.17;;
48765;SDS011;65794;51.836;5.002;2023-02-28T08:09:59;7.20;;;3.30;;
48765;SDS011;65794;51.836;5.002;2023-02-28T08:12:26;8.23;;;3.60;;
48765;SDS011;65794;51.836;5.002;2023-02-28T08:14:53;8.10;;;3.55;;
48765;SDS011;65794;51.836;5.002;2023-02-28T08:17:20;7.38;;;3.45;;
48765;SDS011;65794;51.836;5.002;2023-02-28T08:19:47;6.13;;;2.55;;
48765;SDS011;65794;51.836;5.002;2023-02-28T08:22:13;7.30;;;3.08;;
48765;SDS011;65794;51.836;5.002;2023-02-28T08:24:41;7.07;;;2.80;;
48765;SDS011;65794;51.836;5.002;2023-02-28T08:27:09;12.65;;;3.13;;
48765;SDS011;65794;51.836;5.002;2023-02-28T08:29:36;5.70;;;2.70;;
48765;SDS011;65794;51.836;5.002;2023-02-28T08:32:04;7.20;;;3.10;;
48765;SDS011;65794;51.836;5.002;2023-02-28T08:34:31;9.02;;;3.20;;
48765;SDS011;65794;51.836;5.002;2023-02-28T08:36:58;6.68;;;3.10;;
48765;SDS011;65794;51.836;5.002;2023-02-28T08:39:25;8.32;;;2.92;;
48765;SDS011;65794;51.836;5.002;2023-02-28T08:41:52;6.70;;;3.20;;
48765;SDS011;65794;51.836;5.002;2023-02-28T08:44:32;5.07;;;2.80;;
48765;SDS011;65794;51.836;5.002;2023-02-28T08:46:59;8.43;;;3.28;;
48765;SDS011;65794;51.836;5.002;2023-02-28T08:49:26;8.82;;;3.08;;
48765;SDS011;65794;51.836;5.002;2023-02-28T08:51:53;5.53;;;2.65;;
48765;SDS011;65794;51.836;5.002;2023-02-28T08:54:21;10.63;;;3.63;;
48765;SDS011;65794;51.836;5.002;2023-02-28T08:56:50;8.95;;;3.38;;
48765;SDS011;65794;51.836;5.002;2023-02-28T08:59:17;6.78;;;3.08;;
48765;SDS011;65794;51.836;5.002;2023-02-28T09:01:44;10.35;;;3.25;;
48765;SDS011;65794;51.836;5.002;2023-02-28T09:04:11;7.85;;;3.00;;
48765;SDS011;65794;51.836;5.002;2023-02-28T09:06:42;6.78;;;2.72;;
48765;SDS011;65794;51.836;5.002;2023-02-28T09:09:11;8.82;;;2.67;;
48765;SDS011;65794;51.836;5.002;2023-02-28T09:11:37;5.10;;;2.38;;
48765;SDS011;65794;51.836;5.002;2023-02-28T09:14:04;8.30;;;2.58;;
48765;SDS011;65794;51.836;5.002;2023-02-28T09:16:32;6.43;;;2.55;;
48765;SDS011;65794;51.836;5.002;2023-02-28T09:18:59;8.02;;;2.65;;
48765;SDS011;65794;51.836;5.002;2023-02-28T09:21:26;7.53;;;3.03;;
48765;SDS011;65794;51.836;5.002;2023-02-28T09:23:56;7.90;;;2.63;;
48765;SDS011;65794;51.836;5.002;2023-02-28T09:26:24;6.07;;;2.08;;
48765;SDS011;65794;51.836;5.002;2023-02-28T09:28:51;14.35;;;1.80;;
48765;SDS011;65794;51.836;5.002;2023-02-28T09:31:19;3.25;;;1.52;;
48765;SDS011;65794;51.836;5.002;2023-02-28T09:33:50;3.85;;;1.40;;
48765;SDS011;65794;51.836;5.002;2023-02-28T09:36:17;4.10;;;1.52;;
48765;SDS011;65794;51.836;5.002;2023-02-28T09:38:44;2.90;;;1.20;;
48765;SDS011;65794;51.836;5.002;2023-02-28T09:42:00;3.40;;;1.50;;
48765;SDS011;65794;51.836;5.002;2023-02-28T09:44:03;5.47;;;1.23;;
48765;SDS011;65794;51.836;5.002;2023-02-28T09:49:05;7.00;;;1.73;;
48765;SDS011;65794;51.836;5.002;2023-02-28T09:51:34;4.85;;;1.45;;
48765;SDS011;65794;51.836;5.002;2023-02-28T09:54:04;4.50;;;1.65;;
48765;SDS011;65794;51.836;5.002;2023-02-28T09:56:33;4.10;;;1.45;;
48765;SDS011;65794;51.836;5.002;2023-02-28T10:04:11;4.60;;;1.80;;
48765;SDS011;65794;51.836;5.002;2023-02-28T10:06:46;2.90;;;1.50;;
48765;SDS011;65794;51.836;5.002;2023-02-28T10:09:25;5.75;;;1.98;;
48765;SDS011;65794;51.836;5.002;2023-02-28T10:11:54;6.28;;;1.63;;
48765;SDS011;65794;51.836;5.002;2023-02-28T10:14:25;3.38;;;1.73;;
48765;SDS011;65794;51.836;5.002;2023-02-28T10:19:32;3.63;;;1.80;;
48765;SDS011;65794;51.836;5.002;2023-02-28T10:22:05;3.75;;;1.95;;
48765;SDS011;65794;51.836;5.002;2023-02-28T10:27:12;2.83;;;1.30;;
48765;SDS011;65794;51.836;5.002;2023-02-28T10:29:40;2.97;;;1.63;;
48765;SDS011;65794;51.836;5.002;2023-02-28T10:32:09;2.55;;;1.35;;
48765;SDS011;65794;51.836;5.002;2023-02-28T10:34:37;4.18;;;1.67;;
48765;SDS011;65794;51.836;5.002;2023-02-28T10:37:05;8.38;;;1.88;;
48765;SDS011;65794;51.836;5.002;2023-02-28T10:39:44;5.30;;;1.77;;
48765;SDS011;65794;51.836;5.002;2023-02-28T10:44:45;5.78;;;2.10;;
48765;SDS011;65794;51.836;5.002;2023-02-28T10:47:16;6.30;;;1.80;;
48765;SDS011;65794;51.836;5.002;2023-02-28T10:49:48;7.22;;;2.65;;
48765;SDS011;65794;51.836;5.002;2023-02-28T10:52:31;5.40;;;1.90;;
48765;SDS011;65794;51.836;5.002;2023-02-28T10:58:01;3.78;;;1.70;;
48765;SDS011;65794;51.836;5.002;2023-02-28T11:00:32;4.38;;;1.70;;
48765;SDS011;65794;51.836;5.002;2023-02-28T11:02:59;3.17;;;1.70;;
48765;SDS011;65794;51.836;5.002;2023-02-28T11:05:31;6.30;;;2.20;;
48765;SDS011;65794;51.836;5.002;2023-02-28T11:08:06;4.28;;;1.73;;
48765;SDS011;65794;51.836;5.002;2023-02-28T11:10:37;5.00;;;1.80;;
48765;SDS011;65794;51.836;5.002;2023-02-28T11:13:04;2.53;;;1.45;;
48765;SDS011;65794;51.836;5.002;2023-02-28T11:15:32;4.40;;;1.60;;
48765;SDS011;65794;51.836;5.002;2023-02-28T11:20:30;5.22;;;1.70;;
48765;SDS011;65794;51.836;5.002;2023-02-28T11:22:58;4.72;;;1.92;;
48765;SDS011;65794;51.836;5.002;2023-02-28T11:25:29;2.63;;;1.50;;
48765;SDS011;65794;51.836;5.002;2023-02-28T11:27:58;6.43;;;1.63;;
48765;SDS011;65794;51.836;5.002;2023-02-28T11:32:54;2.40;;;1.42;;
48765;SDS011;65794;51.836;5.002;2023-02-28T11:35:27;3.35;;;1.83;;
48765;SDS011;65794;51.836;5.002;2023-02-28T11:37:55;3.97;;;1.70;;
48765;SDS011;65794;51.836;5.002;2023-02-28T11:40:28;5.55;;;1.83;;
48765;SDS011;65794;51.836;5.002;2023-02-28T11:48:25;3.05;;;1.50;;
48765;SDS011;65794;51.836;5.002;2023-02-28T11:56:10;4.18;;;1.67;;
48765;SDS011;65794;51.836;5.002;2023-02-28T12:03:39;8.25;;;1.90;;
48765;SDS011;65794;51.836;5.002;2023-02-28T12:09:02;4.10;;;1.70;;
48765;SDS011;65794;51.836;5.002;2023-02-28T12:16:48;4.90;;;1.90;;
48765;SDS011;65794;51.836;5.002;2023-02-28T12:19:21;5.72;;;1.98;;
48765;SDS011;65794;51.836;5.002;2023-02-28T12:26:48;4.15;;;1.83;;
48765;SDS011;65794;51.836;5.002;2023-02-28T12:31:54;2.45;;;1.40;;
48765;SDS011;65794;51.836;5.002;2023-02-28T12:34:24;3.13;;;1.40;;
48765;SDS011;65794;51.836;5.002;2023-02-28T12:36:52;3.05;;;1.40;;
48765;SDS011;65794;51.836;5.002;2023-02-28T12:39:26;3.55;;;1.50;;
48765;SDS011;65794;51.836;5.002;2023-02-28T12:41:59;5.65;;;1.42;;
48765;SDS011;65794;51.836;5.002;2023-02-28T12:44:35;3.42;;;1.20;;
48765;SDS011;65794;51.836;5.002;2023-02-28T12:47:09;3.25;;;1.63;;
48765;SDS011;65794;51.836;5.002;2023-02-28T12:49:46;2.83;;;1.45;;
48765;SDS011;65794;51.836;5.002;2023-02-28T12:52:17;3.05;;;1.63;;
48765;SDS011;65794;51.836;5.002;2023-02-28T12:57:27;5.57;;;1.70;;
48765;SDS011;65794;51.836;5.002;2023-02-28T12:59:59;3.15;;;1.40;;
48765;SDS011;65794;51.836;5.002;2023-02-28T13:08:24;3.90;;;1.40;;
48765;SDS011;65794;51.836;5.002;2023-02-28T13:10:54;5.10;;;1.67;;
48765;SDS011;65794;51.836;5.002;2023-02-28T13:13:22;3.00;;;1.60;;
48765;SDS011;65794;51.836;5.002;2023-02-28T13:20:55;3.13;;;1.88;;
48765;SDS011;65794;51.836;5.002;2023-02-28T13:23:55;5.07;;;2.03;;
48765;SDS011;65794;51.836;5.002;2023-02-28T13:26:18;3.53;;;1.80;;
48765;SDS011;65794;51.836;5.002;2023-02-28T13:31:15;4.38;;;2.38;;
48765;SDS011;65794;51.836;5.002;2023-02-28T13:44:15;7.75;;;2.58;;
48765;SDS011;65794;51.836;5.002;2023-02-28T13:51:47;3.25;;;1.73;;
48765;SDS011;65794;51.836;5.002;2023-02-28T13:54:33;9.88;;;1.83;;
48765;SDS011;65794;51.836;5.002;2023-02-28T13:59:44;3.25;;;1.80;;
48765;SDS011;65794;51.836;5.002;2023-02-28T14:05:19;3.95;;;1.90;;
48765;SDS011;65794;51.836;5.002;2023-02-28T14:07:53;5.93;;;2.08;;
48765;SDS011;65794;51.836;5.002;2023-02-28T14:11:02;4.47;;;1.88;;
48765;SDS011;65794;51.836;5.002;2023-02-28T14:16:04;4.57;;;1.90;;
48765;SDS011;65794;51.836;5.002;2023-02-28T14:18:36;4.20;;;1.90;;
48765;SDS011;65794;51.836;5.002;2023-02-28T14:23:49;8.07;;;2.35;;
48765;SDS011;65794;51.836;5.002;2023-02-28T14:37:09;4.03;;;2.28;;
48765;SDS011;65794;51.836;5.002;2023-02-28T14:39:40;5.07;;;2.42;;
48765;SDS011;65794;51.836;5.002;2023-02-28T14:42:25;5.07;;;2.20;;
48765;SDS011;65794;51.836;5.002;2023-02-28T14:44:55;7.63;;;2.42;;
48765;SDS011;65794;51.836;5.002;2023-02-28T14:47:30;4.93;;;2.28;;
48765;SDS011;65794;51.836;5.002;2023-02-28T14:49:58;18.15;;;2.92;;
48765;SDS011;65794;51.836;5.002;2023-02-28T14:52:27;4.53;;;2.05;;
48765;SDS011;65794;51.836;5.002;2023-02-28T14:55:00;9.05;;;2.45;;
48765;SDS011;65794;51.836;5.002;2023-02-28T14:57:28;4.53;;;2.45;;
48765;SDS011;65794;51.836;5.002;2023-02-28T15:02:25;6.03;;;2.88;;
48765;SDS011;65794;51.836;5.002;2023-02-28T15:04:56;6.28;;;2.85;;
48765;SDS011;65794;51.836;5.002;2023-02-28T15:07:24;4.68;;;2.50;;
48765;SDS011;65794;51.836;5.002;2023-02-28T15:12:41;5.57;;;2.58;;
48765;SDS011;65794;51.836;5.002;2023-02-28T15:15:16;5.57;;;2.75;;
48765;SDS011;65794;51.836;5.002;2023-02-28T15:17:50;5.35;;;2.50;;
48765;SDS011;65794;51.836;5.002;2023-02-28T15:20:19;6.28;;;2.28;;
48765;SDS011;65794;51.836;5.002;2023-02-28T15:22:46;5.50;;;2.45;;
48765;SDS011;65794;51.836;5.002;2023-02-28T15:25:15;8.68;;;2.67;;
48765;SDS011;65794;51.836;5.002;2023-02-28T15:27:45;4.32;;;2.47;;
48765;SDS011;65794;51.836;5.002;2023-02-28T15:30:34;5.38;;;2.58;;
48765;SDS011;65794;51.836;5.002;2023-02-28T15:35:31;8.38;;;2.45;;
48765;SDS011;65794;51.836;5.002;2023-02-28T15:38:13;4.13;;;2.08;;
48765;SDS011;65794;51.836;5.002;2023-02-28T15:40:42;5.75;;;2.47;;
48765;SDS011;65794;51.836;5.002;2023-02-28T15:46:02;4.03;;;2.20;;
48765;SDS011;65794;51.836;5.002;2023-02-28T15:48:31;3.72;;;1.75;;
48765;SDS011;65794;51.836;5.002;2023-02-28T15:53:46;6.07;;;1.92;;
48765;SDS011;65794;51.836;5.002;2023-02-28T15:58:47;7.40;;;2.10;;
48765;SDS011;65794;51.836;5.002;2023-02-28T16:01:31;4.88;;;2.22;;
48765;SDS011;65794;51.836;5.002;2023-02-28T16:04:00;3.95;;;2.10;;
48765;SDS011;65794;51.836;5.002;2023-02-28T16:06:32;3.92;;;2.03;;
48765;SDS011;65794;51.836;5.002;2023-02-28T16:08:59;4.60;;;1.80;;
48765;SDS011;65794;51.836;5.002;2023-02-28T16:11:26;14.77;;;3.95;;
48765;SDS011;65794;51.836;5.002;2023-02-28T16:13:53;5.38;;;2.35;;
48765;SDS011;65794;51.836;5.002;2023-02-28T16:16:22;4.43;;;1.83;;
48765;SDS011;65794;51.836;5.002;2023-02-28T16:18:49;4.13;;;1.90;;
48765;SDS011;65794;51.836;5.002;2023-02-28T16:21:16;5.95;;;2.22;;
48765;SDS011;65794;51.836;5.002;2023-02-28T16:23:43;5.97;;;2.20;;
48765;SDS011;65794;51.836;5.002;2023-02-28T16:26:16;4.55;;;2.33;;
48765;SDS011;65794;51.836;5.002;2023-02-28T16:28:44;5.95;;;2.15;;
48765;SDS011;65794;51.836;5.002;2023-02-28T16:31:11;6.25;;;2.15;;
48765;SDS011;65794;51.836;5.002;2023-02-28T16:33:46;8.30;;;2.15;;
48765;SDS011;65794;51.836;5.002;2023-02-28T16:36:17;4.68;;;1.85;;
48765;SDS011;65794;51.836;5.002;2023-02-28T16:38:44;6.00;;;2.20;;
48765;SDS011;65794;51.836;5.002;2023-02-28T16:41:12;5.65;;;2.30;;
48765;SDS011;65794;51.836;5.002;2023-02-28T16:43:43;4.40;;;2.15;;
48765;SDS011;65794;51.836;5.002;2023-02-28T16:46:11;4.70;;;2.10;;
48765;SDS011;65794;51.836;5.002;2023-02-28T16:48:40;4.53;;;2.17;;
48765;SDS011;65794;51.836;5.002;2023-02-28T16:51:13;5.15;;;2.50;;
48765;SDS011;65794;51.836;5.002;2023-02-28T16:53:41;4.45;;;2.30;;
48765;SDS011;65794;51.836;5.002;2023-02-28T16:56:16;5.95;;;2.60;;
48765;SDS011;65794;51.836;5.002;2023-02-28T16:58:43;5.38;;;2.47;;
48765;SDS011;65794;51.836;5.002;2023-02-28T17:01:10;4.88;;;2.35;;
48765;SDS011;65794;51.836;5.002;2023-02-28T17:03:37;6.10;;;3.00;;
48765;SDS011;65794;51.836;5.002;2023-02-28T17:06:04;9.27;;;3.28;;
48765;SDS011;65794;51.836;5.002;2023-02-28T17:08:31;6.45;;;3.10;;
48765;SDS011;65794;51.836;5.002;2023-02-28T17:10:58;11.00;;;2.85;;
48765;SDS011;65794;51.836;5.002;2023-02-28T17:13:25;6.68;;;2.58;;
48765;SDS011;65794;51.836;5.002;2023-02-28T17:15:52;5.07;;;2.63;;
48765;SDS011;65794;51.836;5.002;2023-02-28T17:18:19;8.30;;;2.97;;
48765;SDS011;65794;51.836;5.002;2023-02-28T17:20:48;7.03;;;2.67;;
48765;SDS011;65794;51.836;5.002;2023-02-28T17:23:15;6.47;;;2.28;;
48765;SDS011;65794;51.836;5.002;2023-02-28T17:25:42;7.90;;;2.40;;
48765;SDS011;65794;51.836;5.002;2023-02-28T17:28:24;7.00;;;2.15;;
48765;SDS011;65794;51.836;5.002;2023-02-28T17:30:51;9.55;;;2.80;;
48765;SDS011;65794;51.836;5.002;2023-02-28T17:33:18;5.82;;;2.65;;